sensor_id;sensor_type;location;lat;lon;timestamp;temperature;humidity
16118;DHT22;8163;50.118;5.342;2022-12-29T00:00:07;8.60;99.90
16118;DHT22;8163;50.118;5.342;2022-12-29T00:02:35;8.60;99.90
16118;DHT22;8163;50.118;5.342;2022-12-29T00:05:02;8.60;99.90
16118;DHT22;8163;50.118;5.342;2022-12-29T00:07:31;8.60;99.90
16118;DHT22;8163;50.118;5.342;2022-12-29T00:09:58;8.60;99.90
16118;DHT22;8163;50.118;5.342;2022-12-29T00:12:25;8.60;99.90
16118;DHT22;8163;50.118;5.342;2022-12-29T00:15:11;8.60;99.90
16118;DHT22;8163;50.118;5.342;2022-12-29T00:17:56;8.60;99.90
16118;DHT22;8163;50.118;5.342;2022-12-29T00:20:24;8.60;99.90
16118;DHT22;8163;50.118;5.342;2022-12-29T00:23:10;8.60;99.90
16118;DHT22;8163;50.118;5.342;2022-12-29T00:25:54;8.70;99.90
16118;DHT22;8163;50.118;5.342;2022-12-29T00:28:39;8.60;99.90
16118;DHT22;8163;50.118;5.342;2022-12-29T00:31:23;8.70;99.90
16118;DHT22;8163;50.118;5.342;2022-12-29T00:34:10;8.70;99.90
16118;DHT22;8163;50.118;5.342;2022-12-29T00:36:56;8.70;99.90
16118;DHT22;8163;50.118;5.342;2022-12-29T00:39:24;8.70;99.90
16118;DHT22;8163;50.118;5.342;2022-12-29T00:42:06;8.80;99.90
16118;DHT22;8163;50.118;5.342;2022-12-29T00:44:51;8.80;99.90
16118;DHT22;8163;50.118;5.342;2022-12-29T00:47:18;8.80;99.90
16118;DHT22;8163;50.118;5.342;2022-12-29T00:49:45;8.80;99.90
16118;DHT22;8163;50.118;5.342;2022-12-29T00:52:13;8.80;99.90
16118;DHT22;8163;50.118;5.342;2022-12-29T00:54:42;8.80;99.90
16118;DHT22;8163;50.118;5.342;2022-12-29T00:57:11;8.80;99.90
16118;DHT22;8163;50.118;5.342;2022-12-29T00:59:40;8.80;99.90
16118;DHT22;8163;50.118;5.342;2022-12-29T01:02:09;8.80;99.90
16118;DHT22;8163;50.118;5.342;2022-12-29T01:04:36;8.80;99.90
16118;DHT22;8163;50.118;5.342;2022-12-29T01:07:04;8.70;99.90
16118;DHT22;8163;50.118;5.342;2022-12-29T01:09:32;8.70;99.90
16118;DHT22;8163;50.118;5.342;2022-12-29T01:12:18;8.70;99.90
16118;DHT22;8163;50.118;5.342;2022-12-29T01:15:06;8.60;99.90
16118;DHT22;8163;50.118;5.342;2022-12-29T01:17:34;8.60;99.90
16118;DHT22;8163;50.118;5.342;2022-12-29T01:20:02;8.60;99.90
16118;DHT22;8163;50.118;5.342;2022-12-29T01:22:30;8.60;99.90
16118;DHT22;8163;50.118;5.342;2022-12-29T01:24:57;8.60;99.90
16118;DHT22;8163;50.118;5.342;2022-12-29T01:27:26;8.60;99.90
16118;DHT22;8163;50.118;5.342;2022-12-29T01:29:52;8.70;99.90
16118;DHT22;8163;50.118;5.342;2022-12-29T01:32:20;8.60;99.90
16118;DHT22;8163;50.118;5.342;2022-12-29T01:34:47;8.60;99.90
16118;DHT22;8163;50.118;5.342;2022-12-29T01:37:14;8.60;99.90
16118;DHT22;8163;50.118;5.342;2022-12-29T01:39:41;8.60;99.90
16118;DHT22;8163;50.118;5.342;2022-12-29T01:42:14;8.60;99.90
16118;DHT22;8163;50.118;5.342;2022-12-29T01:44:51;8.60;99.90
16118;DHT22;8163;50.118;5.342;2022-12-29T01:47:33;8.60;99.90
16118;DHT22;8163;50.118;5.342;2022-12-29T01:50:07;8.60;99.90
16118;DHT22;8163;50.118;5.342;2022-12-29T01:52:37;8.60;99.90
16118;DHT22;8163;50.118;5.342;2022-12-29T01:55:06;8.60;99.90
16118;DHT22;8163;50.118;5.342;2022-12-29T01:57:37;8.60;99.90
16118;DHT22;8163;50.118;5.342;2022-12-29T02:00:09;8.60;99.90
16118;DHT22;8163;50.118;5.342;2022-12-29T02:02:36;8.60;99.90
16118;DHT22;8163;50.118;5.342;2022-12-29T02:05:09;8.60;99.90
16118;DHT22;8163;50.118;5.342;2022-12-29T02:07:38;8.60;99.90
16118;DHT22;8163;50.118;5.342;2022-12-29T02:10:06;8.60;99.90
16118;DHT22;8163;50.118;5.342;2022-12-29T02:12:34;8.60;99.90
16118;DHT22;8163;50.118;5.342;2022-12-29T02:15:04;8.60;99.90
16118;DHT22;8163;50.118;5.342;2022-12-29T02:17:42;8.70;99.90
16118;DHT22;8163;50.118;5.342;2022-12-29T02:20:29;8.70;99.90
16118;DHT22;8163;50.118;5.342;2022-12-29T02:23:24;8.70;99.90
16118;DHT22;8163;50.118;5.342;2022-12-29T02:26:22;8.70;99.90
16118;DHT22;8163;50.118;5.342;2022-12-29T02:29:24;8.70;99.90
16118;DHT22;8163;50.118;5.342;2022-12-29T02:32:00;8.70;99.90
16118;DHT22;8163;50.118;5.342;2022-12-29T02:34:41;8.70;99.90
16118;DHT22;8163;50.118;5.342;2022-12-29T02:37:17;8.80;99.90
16118;DHT22;8163;50.118;5.342;2022-12-29T02:39:51;8.80;99.90
16118;DHT22;8163;50.118;5.342;2022-12-29T02:42:24;8.80;99.90
16118;DHT22;8163;50.118;5.342;2022-12-29T02:45:03;8.80;99.90
16118;DHT22;8163;50.118;5.342;2022-12-29T02:47:37;8.70;99.90
16118;DHT22;8163;50.118;5.342;2022-12-29T02:50:15;8.80;99.90
16118;DHT22;8163;50.118;5.342;2022-12-29T02:52:49;8.80;99.90
16118;DHT22;8163;50.118;5.342;2022-12-29T02:55:19;8.80;99.90
16118;DHT22;8163;50.118;5.342;2022-12-29T02:57:45;8.80;99.90
16118;DHT22;8163;50.118;5.342;2022-12-29T03:00:15;8.90;99.90
16118;DHT22;8163;50.118;5.342;2022-12-29T03:06:09;8.90;99.90
16118;DHT22;8163;50.118;5.342;2022-12-29T03:08:46;8.90;99.90
16118;DHT22;8163;50.118;5.342;2022-12-29T03:11:14;8.90;99.90
16118;DHT22;8163;50.118;5.342;2022-12-29T03:13:59;8.90;99.90
16118;DHT22;8163;50.118;5.342;2022-12-29T03:16:48;8.90;99.90
16118;DHT22;8163;50.118;5.342;2022-12-29T03:19:19;9.00;99.90
16118;DHT22;8163;50.118;5.342;2022-12-29T03:21:55;9.00;99.90
16118;DHT22;8163;50.118;5.342;2022-12-29T03:24:44;9.00;99.90
16118;DHT22;8163;50.118;5.342;2022-12-29T03:27:19;9.00;99.90
16118;DHT22;8163;50.118;5.342;2022-12-29T03:29:48;9.00;99.90
16118;DHT22;8163;50.118;5.342;2022-12-29T03:32:22;8.90;99.90
16118;DHT22;8163;50.118;5.342;2022-12-29T03:34:50;9.00;99.90
16118;DHT22;8163;50.118;5.342;2022-12-29T03:37:22;9.00;99.90
16118;DHT22;8163;50.118;5.342;2022-12-29T03:39:50;8.90;99.90
16118;DHT22;8163;50.118;5.342;2022-12-29T03:42:19;8.90;99.90
16118;DHT22;8163;50.118;5.342;2022-12-29T03:44:47;8.90;99.90
16118;DHT22;8163;50.118;5.342;2022-12-29T03:47:15;8.90;99.90
16118;DHT22;8163;50.118;5.342;2022-12-29T03:49:42;9.00;99.90
16118;DHT22;8163;50.118;5.342;2022-12-29T03:52:09;9.00;99.90
16118;DHT22;8163;50.118;5.342;2022-12-29T03:54:37;9.00;99.90
16118;DHT22;8163;50.118;5.342;2022-12-29T03:57:04;9.00;99.90
16118;DHT22;8163;50.118;5.342;2022-12-29T03:59:31;9.00;99.90
16118;DHT22;8163;50.118;5.342;2022-12-29T04:01:58;9.00;99.90
16118;DHT22;8163;50.118;5.342;2022-12-29T04:04:25;9.00;99.90
16118;DHT22;8163;50.118;5.342;2022-12-29T04:06:52;9.00;99.90
16118;DHT22;8163;50.118;5.342;2022-12-29T04:09:19;8.90;99.90
16118;DHT22;8163;50.118;5.342;2022-12-29T04:11:47;9.00;99.90
16118;DHT22;8163;50.118;5.342;2022-12-29T04:14:14;9.00;99.90
16118;DHT22;8163;50.118;5.342;2022-12-29T04:16:41;9.00;99.90
16118;DHT22;8163;50.118;5.342;2022-12-29T04:19:08;8.90;99.90
16118;DHT22;8163;50.118;5.342;2022-12-29T04:21:36;8.90;99.90
16118;DHT22;8163;50.118;5.342;2022-12-29T04:24:04;8.80;99.90
16118;DHT22;8163;50.118;5.342;2022-12-29T04:26:32;8.80;99.90
16118;DHT22;8163;50.118;5.342;2022-12-29T04:29:00;8.80;99.90
16118;DHT22;8163;50.118;5.342;2022-12-29T04:31:27;8.80;99.90
16118;DHT22;8163;50.118;5.342;2022-12-29T04:33:54;8.80;99.90
16118;DHT22;8163;50.118;5.342;2022-12-29T04:36:22;8.70;99.90
16118;DHT22;8163;50.118;5.342;2022-12-29T04:38:49;8.70;99.90
16118;DHT22;8163;50.118;5.342;2022-12-29T04:41:16;8.70;99.90
16118;DHT22;8163;50.118;5.342;2022-12-29T04:43:43;8.60;99.90
16118;DHT22;8163;50.118;5.342;2022-12-29T04:46:12;8.70;99.90
16118;DHT22;8163;50.118;5.342;2022-12-29T04:48:40;8.70;99.90
16118;DHT22;8163;50.118;5.342;2022-12-29T04:51:07;8.60;99.90
16118;DHT22;8163;50.118;5.342;2022-12-29T04:53:35;8.70;99.90
16118;DHT22;8163;50.118;5.342;2022-12-29T04:56:04;8.60;99.90
16118;DHT22;8163;50.118;5.342;2022-12-29T04:58:31;8.60;99.90
16118;DHT22;8163;50.118;5.342;2022-12-29T05:00:58;8.60;99.90
16118;DHT22;8163;50.118;5.342;2022-12-29T05:03:26;8.60;99.90
16118;DHT22;8163;50.118;5.342;2022-12-29T05:05:54;8.60;99.90
16118;DHT22;8163;50.118;5.342;2022-12-29T05:08:21;8.60;99.90
16118;DHT22;8163;50.118;5.342;2022-12-29T05:10:50;8.60;99.90
16118;DHT22;8163;50.118;5.342;2022-12-29T05:13:17;8.60;99.90
16118;DHT22;8163;50.118;5.342;2022-12-29T05:15:47;8.60;99.90
16118;DHT22;8163;50.118;5.342;2022-12-29T05:18:16;8.60;99.90
16118;DHT22;8163;50.118;5.342;2022-12-29T05:20:44;8.60;99.90
16118;DHT22;8163;50.118;5.342;2022-12-29T05:23:14;8.60;99.90
16118;DHT22;8163;50.118;5.342;2022-12-29T05:25:43;8.60;99.90
16118;DHT22;8163;50.118;5.342;2022-12-29T05:28:12;8.60;99.90
16118;DHT22;8163;50.118;5.342;2022-12-29T05:30:40;8.50;99.90
16118;DHT22;8163;50.118;5.342;2022-12-29T05:33:09;8.50;99.90
16118;DHT22;8163;50.118;5.342;2022-12-29T05:35:37;8.50;99.90
16118;DHT22;8163;50.118;5.342;2022-12-29T05:38:06;8.50;99.90
16118;DHT22;8163;50.118;5.342;2022-12-29T05:40:33;8.40;99.90
16118;DHT22;8163;50.118;5.342;2022-12-29T05:43:00;8.40;99.90
16118;DHT22;8163;50.118;5.342;2022-12-29T05:45:27;8.40;99.90
16118;DHT22;8163;50.118;5.342;2022-12-29T05:47:54;8.40;99.90
16118;DHT22;8163;50.118;5.342;2022-12-29T05:50:20;8.40;99.90
16118;DHT22;8163;50.118;5.342;2022-12-29T05:52:48;8.40;99.90
16118;DHT22;8163;50.118;5.342;2022-12-29T05:55:16;8.40;99.90
16118;DHT22;8163;50.118;5.342;2022-12-29T05:57:43;8.30;99.90
16118;DHT22;8163;50.118;5.342;2022-12-29T06:00:11;8.30;99.90
16118;DHT22;8163;50.118;5.342;2022-12-29T06:02:38;8.30;99.90
16118;DHT22;8163;50.118;5.342;2022-12-29T06:05:07;8.20;99.90
16118;DHT22;8163;50.118;5.342;2022-12-29T06:07:34;8.20;99.90
16118;DHT22;8163;50.118;5.342;2022-12-29T06:10:01;8.20;99.90
16118;DHT22;8163;50.118;5.342;2022-12-29T06:12:32;8.20;99.90
16118;DHT22;8163;50.118;5.342;2022-12-29T06:15:00;8.20;99.90
16118;DHT22;8163;50.118;5.342;2022-12-29T06:17:27;8.20;99.90
16118;DHT22;8163;50.118;5.342;2022-12-29T06:19:54;8.20;99.90
16118;DHT22;8163;50.118;5.342;2022-12-29T06:22:21;8.10;99.90
16118;DHT22;8163;50.118;5.342;2022-12-29T06:24:48;8.10;99.90
16118;DHT22;8163;50.118;5.342;2022-12-29T06:27:15;8.10;99.90
16118;DHT22;8163;50.118;5.342;2022-12-29T06:32:54;8.10;99.90
16118;DHT22;8163;50.118;5.342;2022-12-29T06:35:21;8.10;99.90
16118;DHT22;8163;50.118;5.342;2022-12-29T06:37:49;8.10;99.90
16118;DHT22;8163;50.118;5.342;2022-12-29T06:40:16;8.10;99.90
16118;DHT22;8163;50.118;5.342;2022-12-29T06:42:43;8.10;99.90
16118;DHT22;8163;50.118;5.342;2022-12-29T06:45:10;8.10;99.90
16118;DHT22;8163;50.118;5.342;2022-12-29T06:47:37;8.10;99.90
16118;DHT22;8163;50.118;5.342;2022-12-29T06:50:06;8.10;99.90
16118;DHT22;8163;50.118;5.342;2022-12-29T06:52:33;8.10;99.90
16118;DHT22;8163;50.118;5.342;2022-12-29T06:55:00;8.10;99.90
16118;DHT22;8163;50.118;5.342;2022-12-29T06:57:27;8.10;99.90
16118;DHT22;8163;50.118;5.342;2022-12-29T06:59:54;8.10;99.90
16118;DHT22;8163;50.118;5.342;2022-12-29T07:02:22;8.10;99.90
16118;DHT22;8163;50.118;5.342;2022-12-29T07:04:50;8.10;99.90
16118;DHT22;8163;50.118;5.342;2022-12-29T07:07:19;8.10;99.90
16118;DHT22;8163;50.118;5.342;2022-12-29T07:09:46;8.10;99.90
16118;DHT22;8163;50.118;5.342;2022-12-29T07:12:13;8.10;99.90
16118;DHT22;8163;50.118;5.342;2022-12-29T07:14:40;8.10;99.90
16118;DHT22;8163;50.118;5.342;2022-12-29T07:17:07;8.10;99.90
16118;DHT22;8163;50.118;5.342;2022-12-29T07:19:34;8.10;99.90
16118;DHT22;8163;50.118;5.342;2022-12-29T07:22:01;8.10;99.90
16118;DHT22;8163;50.118;5.342;2022-12-29T07:24:29;8.10;99.90
16118;DHT22;8163;50.118;5.342;2022-12-29T07:26:56;8.10;99.90
16118;DHT22;8163;50.118;5.342;2022-12-29T07:29:23;8.10;99.90
16118;DHT22;8163;50.118;5.342;2022-12-29T07:31:50;8.10;99.90
16118;DHT22;8163;50.118;5.342;2022-12-29T07:34:17;8.10;99.90
16118;DHT22;8163;50.118;5.342;2022-12-29T07:36:44;8.10;99.90
16118;DHT22;8163;50.118;5.342;2022-12-29T07:39:11;8.10;99.90
16118;DHT22;8163;50.118;5.342;2022-12-29T07:41:39;8.10;99.90
16118;DHT22;8163;50.118;5.342;2022-12-29T07:44:08;8.10;99.90
16118;DHT22;8163;50.118;5.342;2022-12-29T07:46:35;8.10;99.90
16118;DHT22;8163;50.118;5.342;2022-12-29T07:49:02;8.10;99.90
16118;DHT22;8163;50.118;5.342;2022-12-29T07:51:29;8.10;99.90
16118;DHT22;8163;50.118;5.342;2022-12-29T07:53:58;8.10;99.90
16118;DHT22;8163;50.118;5.342;2022-12-29T07:56:26;8.10;99.90
16118;DHT22;8163;50.118;5.342;2022-12-29T07:58:54;8.10;99.90
16118;DHT22;8163;50.118;5.342;2022-12-29T08:01:21;8.10;99.90
16118;DHT22;8163;50.118;5.342;2022-12-29T08:03:48;8.10;99.90
16118;DHT22;8163;50.118;5.342;2022-12-29T08:06:15;8.10;99.90
16118;DHT22;8163;50.118;5.342;2022-12-29T08:08:44;8.10;99.90
16118;DHT22;8163;50.118;5.342;2022-12-29T08:11:10;8.10;99.90
16118;DHT22;8163;50.118;5.342;2022-12-29T08:13:38;8.10;99.90
16118;DHT22;8163;50.118;5.342;2022-12-29T08:16:06;8.10;99.90
16118;DHT22;8163;50.118;5.342;2022-12-29T08:18:33;8.20;99.90
16118;DHT22;8163;50.118;5.342;2022-12-29T08:21:02;8.10;99.90
16118;DHT22;8163;50.118;5.342;2022-12-29T08:23:29;8.20;99.90
16118;DHT22;8163;50.118;5.342;2022-12-29T08:25:59;8.20;99.90
16118;DHT22;8163;50.118;5.342;2022-12-29T08:28:27;8.30;99.90
16118;DHT22;8163;50.118;5.342;2022-12-29T08:30:57;8.20;99.90
16118;DHT22;8163;50.118;5.342;2022-12-29T08:33:26;8.30;99.90
16118;DHT22;8163;50.118;5.342;2022-12-29T08:35:57;8.30;99.90
16118;DHT22;8163;50.118;5.342;2022-12-29T08:38:24;8.40;99.90
16118;DHT22;8163;50.118;5.342;2022-12-29T08:40:51;8.50;99.90
16118;DHT22;8163;50.118;5.342;2022-12-29T08:43:18;8.50;99.90
16118;DHT22;8163;50.118;5.342;2022-12-29T08:45:45;8.60;99.90
16118;DHT22;8163;50.118;5.342;2022-12-29T08:48:12;8.60;99.90
16118;DHT22;8163;50.118;5.342;2022-12-29T08:50:44;8.60;99.90
16118;DHT22;8163;50.118;5.342;2022-12-29T08:53:12;8.60;99.90
16118;DHT22;8163;50.118;5.342;2022-12-29T08:55:39;8.60;99.90
16118;DHT22;8163;50.118;5.342;2022-12-29T08:58:07;8.60;99.90
16118;DHT22;8163;50.118;5.342;2022-12-29T09:00:34;8.60;99.90
16118;DHT22;8163;50.118;5.342;2022-12-29T09:03:01;8.60;99.90
16118;DHT22;8163;50.118;5.342;2022-12-29T09:05:28;8.70;99.90
16118;DHT22;8163;50.118;5.342;2022-12-29T09:07:57;8.70;99.90
16118;DHT22;8163;50.118;5.342;2022-12-29T09:10:23;8.70;99.90
16118;DHT22;8163;50.118;5.342;2022-12-29T09:12:50;8.70;99.90
16118;DHT22;8163;50.118;5.342;2022-12-29T09:15:17;8.70;99.90
16118;DHT22;8163;50.118;5.342;2022-12-29T09:17:45;8.70;99.90
16118;DHT22;8163;50.118;5.342;2022-12-29T09:20:14;8.70;99.90
16118;DHT22;8163;50.118;5.342;2022-12-29T09:22:42;8.70;99.90
16118;DHT22;8163;50.118;5.342;2022-12-29T09:25:11;8.70;99.90
16118;DHT22;8163;50.118;5.342;2022-12-29T09:27:38;8.70;99.90
16118;DHT22;8163;50.118;5.342;2022-12-29T09:30:08;8.70;99.90
16118;DHT22;8163;50.118;5.342;2022-12-29T09:32:36;8.80;99.90
16118;DHT22;8163;50.118;5.342;2022-12-29T09:35:04;8.90;99.90
16118;DHT22;8163;50.118;5.342;2022-12-29T09:37:32;8.90;99.90
16118;DHT22;8163;50.118;5.342;2022-12-29T09:39:59;9.00;99.90
16118;DHT22;8163;50.118;5.342;2022-12-29T09:42:31;9.00;99.90
16118;DHT22;8163;50.118;5.342;2022-12-29T09:45:05;9.10;99.90
16118;DHT22;8163;50.118;5.342;2022-12-29T09:47:34;9.30;99.90
16118;DHT22;8163;50.118;5.342;2022-12-29T09:50:04;9.40;99.90
16118;DHT22;8163;50.118;5.342;2022-12-29T09:52:36;9.40;99.90
16118;DHT22;8163;50.118;5.342;2022-12-29T09:55:05;9.40;99.90
16118;DHT22;8163;50.118;5.342;2022-12-29T09:57:42;9.30;99.90
16118;DHT22;8163;50.118;5.342;2022-12-29T10:00:14;9.20;99.90
16118;DHT22;8163;50.118;5.342;2022-12-29T10:02:49;9.10;99.90
16118;DHT22;8163;50.118;5.342;2022-12-29T10:05:25;9.00;99.90
16118;DHT22;8163;50.118;5.342;2022-12-29T10:08:01;8.90;99.90
16118;DHT22;8163;50.118;5.342;2022-12-29T10:10:35;8.90;99.90
16118;DHT22;8163;50.118;5.342;2022-12-29T10:13:16;8.90;99.90
16118;DHT22;8163;50.118;5.342;2022-12-29T10:15:57;8.80;99.90
16118;DHT22;8163;50.118;5.342;2022-12-29T10:18:50;8.80;99.90
16118;DHT22;8163;50.118;5.342;2022-12-29T10:21:28;8.70;99.90
16118;DHT22;8163;50.118;5.342;2022-12-29T10:24:02;8.80;99.90
16118;DHT22;8163;50.118;5.342;2022-12-29T10:26:35;8.70;99.90
16118;DHT22;8163;50.118;5.342;2022-12-29T10:29:08;8.80;99.90
16118;DHT22;8163;50.118;5.342;2022-12-29T10:31:42;8.80;99.90
16118;DHT22;8163;50.118;5.342;2022-12-29T10:34:16;8.80;99.90
16118;DHT22;8163;50.118;5.342;2022-12-29T10:36:47;8.80;99.90
16118;DHT22;8163;50.118;5.342;2022-12-29T10:39:21;8.70;99.90
16118;DHT22;8163;50.118;5.342;2022-12-29T10:41:53;8.80;99.90
16118;DHT22;8163;50.118;5.342;2022-12-29T10:44:23;8.80;99.90
16118;DHT22;8163;50.118;5.342;2022-12-29T10:46:56;8.80;99.90
16118;DHT22;8163;50.118;5.342;2022-12-29T10:49:25;8.90;99.90
16118;DHT22;8163;50.118;5.342;2022-12-29T10:51:58;8.80;99.90
16118;DHT22;8163;50.118;5.342;2022-12-29T10:54:29;8.80;99.90
16118;DHT22;8163;50.118;5.342;2022-12-29T10:57:01;8.80;99.90
16118;DHT22;8163;50.118;5.342;2022-12-29T10:59:33;8.90;99.90
16118;DHT22;8163;50.118;5.342;2022-12-29T11:02:20;8.90;99.90
16118;DHT22;8163;50.118;5.342;2022-12-29T11:04:57;8.90;99.90
16118;DHT22;8163;50.118;5.342;2022-12-29T11:07:28;8.80;99.90
16118;DHT22;8163;50.118;5.342;2022-12-29T11:10:16;8.80;99.90
16118;DHT22;8163;50.118;5.342;2022-12-29T11:12:55;8.70;99.90
16118;DHT22;8163;50.118;5.342;2022-12-29T11:15:24;8.80;99.90
16118;DHT22;8163;50.118;5.342;2022-12-29T11:17:53;8.70;99.90
16118;DHT22;8163;50.118;5.342;2022-12-29T11:20:32;8.70;99.90
16118;DHT22;8163;50.118;5.342;2022-12-29T11:23:00;8.70;99.90
16118;DHT22;8163;50.118;5.342;2022-12-29T11:25:28;8.70;99.90
16118;DHT22;8163;50.118;5.342;2022-12-29T11:27:58;8.70;99.90
16118;DHT22;8163;50.118;5.342;2022-12-29T11:30:29;8.70;99.90
16118;DHT22;8163;50.118;5.342;2022-12-29T11:32:57;8.70;99.90
16118;DHT22;8163;50.118;5.342;2022-12-29T11:35:33;8.80;99.90
16118;DHT22;8163;50.118;5.342;2022-12-29T11:38:02;8.80;99.90
16118;DHT22;8163;50.118;5.342;2022-12-29T11:40:38;8.80;99.90
16118;DHT22;8163;50.118;5.342;2022-12-29T11:43:05;8.80;99.90
16118;DHT22;8163;50.118;5.342;2022-12-29T11:45:35;8.70;99.90
16118;DHT22;8163;50.118;5.342;2022-12-29T11:48:07;8.70;99.90
16118;DHT22;8163;50.118;5.342;2022-12-29T11:50:39;8.70;99.90
16118;DHT22;8163;50.118;5.342;2022-12-29T11:53:15;8.70;99.90
16118;DHT22;8163;50.118;5.342;2022-12-29T11:55:52;8.80;99.90
16118;DHT22;8163;50.118;5.342;2022-12-29T11:58:19;8.80;99.90
16118;DHT22;8163;50.118;5.342;2022-12-29T12:00:51;8.80;99.90
16118;DHT22;8163;50.118;5.342;2022-12-29T12:03:20;8.80;99.90
16118;DHT22;8163;50.118;5.342;2022-12-29T12:05:50;8.80;99.90
16118;DHT22;8163;50.118;5.342;2022-12-29T12:08:31;8.80;99.90
16118;DHT22;8163;50.118;5.342;2022-12-29T12:11:04;8.80;99.90
16118;DHT22;8163;50.118;5.342;2022-12-29T12:13:35;8.80;99.90
16118;DHT22;8163;50.118;5.342;2022-12-29T12:16:09;8.80;99.90
16118;DHT22;8163;50.118;5.342;2022-12-29T12:18:41;8.80;99.90
16118;DHT22;8163;50.118;5.342;2022-12-29T12:21:23;8.70;99.90
16118;DHT22;8163;50.118;5.342;2022-12-29T12:24:07;8.80;99.90
16118;DHT22;8163;50.118;5.342;2022-12-29T12:26:39;9.00;99.90
16118;DHT22;8163;50.118;5.342;2022-12-29T12:29:13;9.20;99.90
16118;DHT22;8163;50.118;5.342;2022-12-29T12:31:46;9.20;99.90
16118;DHT22;8163;50.118;5.342;2022-12-29T12:34:19;9.30;99.90
16118;DHT22;8163;50.118;5.342;2022-12-29T12:37:11;9.40;99.90
16118;DHT22;8163;50.118;5.342;2022-12-29T12:39:49;9.40;99.90
16118;DHT22;8163;50.118;5.342;2022-12-29T12:42:33;9.40;99.90
16118;DHT22;8163;50.118;5.342;2022-12-29T12:45:23;9.30;99.90
16118;DHT22;8163;50.118;5.342;2022-12-29T12:48:04;9.20;99.90
16118;DHT22;8163;50.118;5.342;2022-12-29T12:50:48;9.20;99.90
16118;DHT22;8163;50.118;5.342;2022-12-29T12:53:28;9.10;99.90
16118;DHT22;8163;50.118;5.342;2022-12-29T12:56:14;9.20;99.90
16118;DHT22;8163;50.118;5.342;2022-12-29T12:58:53;9.30;99.90
16118;DHT22;8163;50.118;5.342;2022-12-29T13:01:34;9.50;99.90
16118;DHT22;8163;50.118;5.342;2022-12-29T13:04:34;10.00;99.90
16118;DHT22;8163;50.118;5.342;2022-12-29T13:07:10;11.00;99.90
16118;DHT22;8163;50.118;5.342;2022-12-29T13:09:46;11.30;99.90
16118;DHT22;8163;50.118;5.342;2022-12-29T13:12:22;11.10;99.90
16118;DHT22;8163;50.118;5.342;2022-12-29T13:15:09;10.80;99.90
16118;DHT22;8163;50.118;5.342;2022-12-29T13:17:43;10.80;99.90
16118;DHT22;8163;50.118;5.342;2022-12-29T13:20:27;10.60;99.90
16118;DHT22;8163;50.118;5.342;2022-12-29T13:23:01;10.10;99.90
16118;DHT22;8163;50.118;5.342;2022-12-29T13:25:36;9.80;99.90
16118;DHT22;8163;50.118;5.342;2022-12-29T13:28:10;9.60;99.90
16118;DHT22;8163;50.118;5.342;2022-12-29T13:30:45;9.40;99.90
16118;DHT22;8163;50.118;5.342;2022-12-29T13:33:22;9.30;99.90
16118;DHT22;8163;50.118;5.342;2022-12-29T13:36:02;9.10;99.90
16118;DHT22;8163;50.118;5.342;2022-12-29T13:38:34;9.00;99.90
16118;DHT22;8163;50.118;5.342;2022-12-29T13:41:05;8.90;99.90
16118;DHT22;8163;50.118;5.342;2022-12-29T13:43:37;8.80;99.90
16118;DHT22;8163;50.118;5.342;2022-12-29T13:46:10;8.70;99.90
16118;DHT22;8163;50.118;5.342;2022-12-29T13:48:42;8.60;99.90
16118;DHT22;8163;50.118;5.342;2022-12-29T13:51:21;8.60;99.90
16118;DHT22;8163;50.118;5.342;2022-12-29T13:54:04;8.60;99.90
16118;DHT22;8163;50.118;5.342;2022-12-29T13:56:38;8.60;99.90
16118;DHT22;8163;50.118;5.342;2022-12-29T14:36:21;8.60;99.90
16118;DHT22;8163;50.118;5.342;2022-12-29T14:38:50;8.60;99.90
16118;DHT22;8163;50.118;5.342;2022-12-29T14:41:32;8.60;99.90
16118;DHT22;8163;50.118;5.342;2022-12-29T14:44:14;8.60;99.90
16118;DHT22;8163;50.118;5.342;2022-12-29T14:46:57;8.70;99.90
16118;DHT22;8163;50.118;5.342;2022-12-29T14:49:31;8.50;99.90
16118;DHT22;8163;50.118;5.342;2022-12-29T14:52:13;8.50;99.90
16118;DHT22;8163;50.118;5.342;2022-12-29T14:54:52;8.40;99.90
16118;DHT22;8163;50.118;5.342;2022-12-29T14:57:25;8.50;99.90
16118;DHT22;8163;50.118;5.342;2022-12-29T14:59:58;8.40;99.90
16118;DHT22;8163;50.118;5.342;2022-12-29T15:02:34;8.40;99.90
16118;DHT22;8163;50.118;5.342;2022-12-29T15:05:05;8.40;99.90
16118;DHT22;8163;50.118;5.342;2022-12-29T15:07:38;8.30;99.90
16118;DHT22;8163;50.118;5.342;2022-12-29T15:10:11;8.40;99.90
16118;DHT22;8163;50.118;5.342;2022-12-29T15:12:45;8.30;99.90
16118;DHT22;8163;50.118;5.342;2022-12-29T15:15:20;8.30;99.90
16118;DHT22;8163;50.118;5.342;2022-12-29T15:17:47;8.20;99.90
16118;DHT22;8163;50.118;5.342;2022-12-29T15:20:22;8.20;99.90
16118;DHT22;8163;50.118;5.342;2022-12-29T15:22:54;8.20;99.90
16118;DHT22;8163;50.118;5.342;2022-12-29T15:25:23;8.10;99.90
16118;DHT22;8163;50.118;5.342;2022-12-29T15:27:52;8.00;99.90
16118;DHT22;8163;50.118;5.342;2022-12-29T15:30:20;8.00;99.90
16118;DHT22;8163;50.118;5.342;2022-12-29T15:32:48;7.90;99.90
16118;DHT22;8163;50.118;5.342;2022-12-29T15:35:28;7.90;99.90
16118;DHT22;8163;50.118;5.342;2022-12-29T15:37:57;7.80;99.90
16118;DHT22;8163;50.118;5.342;2022-12-29T15:40:27;7.70;99.90
16118;DHT22;8163;50.118;5.342;2022-12-29T15:43:13;7.70;99.90
16118;DHT22;8163;50.118;5.342;2022-12-29T15:45:43;7.70;99.90
16118;DHT22;8163;50.118;5.342;2022-12-29T15:48:16;7.70;99.90
16118;DHT22;8163;50.118;5.342;2022-12-29T15:50:44;7.80;99.90
16118;DHT22;8163;50.118;5.342;2022-12-29T15:53:20;7.80;99.90
16118;DHT22;8163;50.118;5.342;2022-12-29T15:55:50;7.70;99.90
16118;DHT22;8163;50.118;5.342;2022-12-29T15:58:23;7.70;99.90
16118;DHT22;8163;50.118;5.342;2022-12-29T16:00:53;7.70;99.90
16118;DHT22;8163;50.118;5.342;2022-12-29T16:03:21;7.60;99.90
16118;DHT22;8163;50.118;5.342;2022-12-29T16:05:53;7.60;99.90
16118;DHT22;8163;50.118;5.342;2022-12-29T16:08:34;7.60;99.90
16118;DHT22;8163;50.118;5.342;2022-12-29T16:11:16;7.60;99.90
16118;DHT22;8163;50.118;5.342;2022-12-29T16:13:48;7.70;99.90
16118;DHT22;8163;50.118;5.342;2022-12-29T16:16:19;7.60;99.90
16118;DHT22;8163;50.118;5.342;2022-12-29T16:18:46;7.60;99.90
16118;DHT22;8163;50.118;5.342;2022-12-29T16:21:19;7.60;99.90
16118;DHT22;8163;50.118;5.342;2022-12-29T16:23:50;7.60;99.90
16118;DHT22;8163;50.118;5.342;2022-12-29T16:26:20;7.60;99.90
16118;DHT22;8163;50.118;5.342;2022-12-29T16:28:50;7.50;99.90
16118;DHT22;8163;50.118;5.342;2022-12-29T16:31:28;7.50;99.90
16118;DHT22;8163;50.118;5.342;2022-12-29T16:34:11;7.50;99.90
16118;DHT22;8163;50.118;5.342;2022-12-29T16:36:54;7.40;99.90
16118;DHT22;8163;50.118;5.342;2022-12-29T16:39:37;7.40;99.90
16118;DHT22;8163;50.118;5.342;2022-12-29T16:42:33;7.40;99.90
16118;DHT22;8163;50.118;5.342;2022-12-29T16:48:10;7.30;99.90
16118;DHT22;8163;50.118;5.342;2022-12-29T16:50:44;7.30;99.90
16118;DHT22;8163;50.118;5.342;2022-12-29T16:53:19;7.30;99.90
16118;DHT22;8163;50.118;5.342;2022-12-29T16:55:51;7.30;99.90
16118;DHT22;8163;50.118;5.342;2022-12-29T16:58:20;7.30;99.90
16118;DHT22;8163;50.118;5.342;2022-12-29T17:00:49;7.30;99.90
16118;DHT22;8163;50.118;5.342;2022-12-29T17:03:19;7.30;99.90
16118;DHT22;8163;50.118;5.342;2022-12-29T17:05:45;7.30;99.90
16118;DHT22;8163;50.118;5.342;2022-12-29T17:08:18;7.30;99.90
16118;DHT22;8163;50.118;5.342;2022-12-29T17:10:50;7.30;99.90
16118;DHT22;8163;50.118;5.342;2022-12-29T17:13:35;7.30;99.90
16118;DHT22;8163;50.118;5.342;2022-12-29T17:16:03;7.30;99.90
16118;DHT22;8163;50.118;5.342;2022-12-29T17:18:30;7.30;99.90